createdAt,value
2023-01-27T00:00:09.479Z,80.53
2023-01-27T00:04:37.775Z,80.46
2023-01-27T00:08:41.340Z,80.52
2023-01-27T00:12:43.300Z,80.55
2023-01-27T00:16:45.776Z,80.57
2023-01-27T00:20:48.039Z,80.49
2023-01-27T00:24:58.820Z,80.54
2023-01-27T00:28:47.969Z,80.68
2023-01-27T00:32:50.095Z,80.29
2023-01-27T00:37:06.076Z,80.33
2023-01-27T00:41:09.854Z,80.32
2023-01-27T00:45:12.601Z,80.15
2023-01-27T00:49:14.690Z,80.35
2023-01-27T00:53:26.809Z,80.32
2023-01-27T00:57:30.460Z,80.08
2023-01-27T01:01:23.224Z,80.16
2023-01-27T01:05:27.259Z,80.07
2023-01-27T01:09:20.424Z,80.23
2023-01-27T01:13:22.999Z,80.03
2023-01-27T01:17:26.606Z,80.12
2023-01-27T01:21:02.480Z,80.03
2023-01-27T01:25:29.153Z,80.07
2023-01-27T01:29:33.135Z,80.11
2023-01-27T01:33:35.916Z,80.01
2023-01-27T01:37:39.594Z,79.91
2023-01-27T01:41:42.649Z,79.98
2023-01-27T01:46:15.822Z,80.13
2023-01-27T01:50:20.123Z,80.03
2023-01-27T01:54:21.441Z,79.96
2023-01-27T01:58:09.070Z,80.01
2023-01-27T02:02:02.578Z,80.12
2023-01-27T02:06:08.230Z,79.97
2023-01-27T02:10:11.570Z,79.89
2023-01-27T02:14:16.193Z,79.93
2023-01-27T02:18:20.343Z,79.91
2023-01-27T02:22:24.835Z,79.90
2023-01-27T02:26:40.358Z,79.76
2023-01-27T02:30:44.124Z,79.72
2023-01-27T02:35:07.397Z,79.81
2023-01-27T02:38:58.864Z,79.73
2023-01-27T02:43:02.474Z,79.60
2023-01-27T02:46:57.978Z,79.57
2023-01-27T02:50:51.785Z,79.60
2023-01-27T02:54:55.585Z,79.75
2023-01-27T02:58:59.734Z,79.75
2023-01-27T03:03:03.472Z,79.74
2023-01-27T03:07:09.926Z,79.78
2023-01-27T03:11:13.703Z,79.57
2023-01-27T03:15:16.817Z,79.70
2023-01-27T03:19:13.431Z,79.71
2023-01-27T03:23:00.228Z,79.65
2023-01-27T03:26:49.777Z,79.54
2023-01-27T03:30:53.524Z,79.71
2023-01-27T03:35:12.562Z,79.47
2023-01-27T03:38:52.858Z,79.76
2023-01-27T03:42:54.954Z,79.69
2023-01-27T03:46:59.036Z,79.48
2023-01-27T03:51:04.019Z,79.65
2023-01-27T03:55:14.405Z,79.83
2023-01-27T03:59:21.689Z,79.53
2023-01-27T04:03:23.570Z,79.68
2023-01-27T04:07:27.189Z,79.46
2023-01-27T04:11:48.785Z,79.57
2023-01-27T04:15:52.415Z,79.56
2023-01-27T04:19:56.048Z,79.45
2023-01-27T04:23:50.949Z,79.41
2023-01-27T04:27:26.592Z,79.75
2023-01-27T04:31:15.801Z,79.22
2023-01-27T04:35:21.537Z,79.35
2023-01-27T04:39:26.965Z,79.64
2023-01-27T04:43:30.531Z,79.33
2023-01-27T04:47:34.106Z,79.44
2023-01-27T04:51:37.888Z,79.48
2023-01-27T04:55:47.489Z,79.29
2023-01-27T04:59:38.758Z,79.34
2023-01-27T05:03:14.924Z,79.30
2023-01-27T05:11:02.539Z,79.36
2023-01-27T05:15:06.495Z,79.45
2023-01-27T05:19:07.394Z,79.37
2023-01-27T05:23:10.997Z,79.27
2023-01-27T05:27:20.481Z,79.28
2023-01-27T05:31:30.036Z,79.43
2023-01-27T05:35:18.053Z,79.47
2023-01-27T05:43:46.323Z,79.53
2023-01-27T05:47:52.331Z,79.65
2023-01-27T05:51:42.279Z,79.61
2023-01-27T05:55:44.649Z,79.58
2023-01-27T05:59:48.214Z,79.36
2023-01-27T06:03:51.624Z,79.51
2023-01-27T06:07:57.593Z,79.66
2023-01-27T06:12:01.488Z,79.79
2023-01-27T06:16:11.292Z,79.69
2023-01-27T06:20:07.765Z,79.99
2023-01-27T06:24:12.663Z,79.87
2023-01-27T06:28:28.653Z,80.01
2023-01-27T06:32:32.645Z,79.89
2023-01-27T06:36:36.420Z,79.92
2023-01-27T06:40:40.039Z,80.12
2023-01-27T06:44:40.906Z,80.06
2023-01-27T06:48:51.951Z,80.22
2023-01-27T06:52:58.392Z,80.20
2023-01-27T06:57:05.540Z,80.32
2023-01-27T07:01:09.261Z,80.82
2023-01-27T07:05:13.055Z,80.46
2023-01-27T07:09:07.574Z,80.77
2023-01-27T07:13:06.942Z,80.70
2023-01-27T07:17:09.578Z,80.57
2023-01-27T07:21:19.460Z,80.82
2023-01-27T07:30:06.514Z,80.86
2023-01-27T07:33:45.052Z,80.72
2023-01-27T07:37:37.326Z,80.80
2023-01-27T07:41:30.763Z,80.87
2023-01-27T07:45:36.436Z,80.70
2023-01-27T07:49:40.064Z,80.78
2023-01-27T07:58:08.555Z,80.82
2023-01-27T08:02:12.155Z,80.77
2023-01-27T08:06:15.980Z,81.03
2023-01-27T08:10:16.293Z,80.82
2023-01-27T08:14:19.907Z,81.04
2023-01-27T08:18:33.795Z,81.02
2023-01-27T08:22:37.437Z,80.97
2023-01-27T08:26:41.605Z,80.97
2023-01-27T08:35:24.551Z,81.04
2023-01-27T08:39:28.608Z,81.06
2023-01-27T08:43:22.161Z,80.85
2023-01-27T08:47:22.181Z,81.04
2023-01-27T08:51:18.242Z,81.14
2023-01-27T08:55:01.940Z,80.88
2023-01-27T08:59:06.108Z,81.06
2023-01-27T09:03:21.496Z,80.92
2023-01-27T09:22:48.385Z,80.93
2023-01-27T10:01:09.183Z,80.93
2023-01-27T10:13:58.109Z,80.92
2023-01-27T10:21:38.752Z,80.92
2023-01-27T11:13:00.541Z,80.26
2023-01-27T11:16:39.777Z,80.26
2023-01-27T11:20:41.758Z,80.25
2023-01-27T11:24:44.086Z,80.19
2023-01-27T11:28:54.463Z,80.19
2023-01-27T11:33:13.754Z,80.22
2023-01-27T11:36:50.685Z,80.10
2023-01-27T11:41:03.417Z,80.09
2023-01-27T11:45:07.029Z,79.96
2023-01-27T11:49:08.350Z,79.99
2023-01-27T11:57:47.982Z,79.81
2023-01-27T12:01:57.674Z,79.74
2023-01-27T12:05:53.001Z,79.88
2023-01-27T12:14:54.124Z,79.57
2023-01-27T12:18:57.765Z,79.56
2023-01-27T12:22:55.061Z,79.60
2023-01-27T12:26:59.399Z,79.56
2023-01-27T12:31:15.296Z,79.46
2023-01-27T12:35:02.005Z,79.45
2023-01-27T12:50:18.995Z,79.32
2023-01-27T13:01:48.990Z,79.23
2023-01-27T13:04:03.870Z,79.37
2023-01-27T13:05:37.467Z,79.23
2023-01-27T13:09:46.323Z,78.99
2023-01-27T13:13:41.877Z,78.99
2023-01-27T13:18:11.536Z,78.92
2023-01-27T13:21:55.739Z,78.87
2023-01-27T13:25:45.577Z,78.76
2023-01-27T13:29:54.813Z,78.81
2023-01-27T13:33:58.437Z,78.84
2023-01-27T13:38:15.584Z,78.82
2023-01-27T13:42:22.252Z,78.75
2023-01-27T13:46:51.978Z,78.75
2023-01-27T13:51:07.698Z,78.60
2023-01-27T13:55:20.652Z,78.63
2023-01-27T13:59:26.147Z,78.67
2023-01-27T14:03:32.345Z,78.58
2023-01-27T14:07:57.486Z,78.57
2023-01-27T14:11:59.934Z,78.64
2023-01-27T14:16:04.683Z,78.36
2023-01-27T14:20:20.448Z,78.13
2023-01-27T14:24:31.886Z,77.98
2023-01-27T14:28:51.142Z,78.01
2023-01-27T14:33:13.045Z,77.98
2023-01-27T14:37:26.331Z,77.82
2023-01-27T14:41:44.932Z,77.90
2023-01-27T14:45:53.014Z,77.82
2023-01-27T14:55:17.418Z,77.69
2023-01-27T15:04:09.265Z,77.35
2023-01-27T15:08:37.472Z,76.98
2023-01-27T15:12:42.746Z,77.17
2023-01-27T15:16:49.266Z,77.39
2023-01-27T15:21:03.438Z,77.45
2023-01-27T15:25:25.482Z,77.19
2023-01-27T15:29:29.628Z,77.33
2023-01-27T15:33:35.895Z,77.46
2023-01-27T15:37:33.287Z,77.27
2023-01-27T15:41:35.178Z,77.29
2023-01-27T15:45:40.461Z,77.28
2023-01-27T15:49:50.239Z,77.46
2023-01-27T15:53:53.914Z,77.44
2023-01-27T15:58:01.587Z,77.27
2023-01-27T16:01:50.999Z,77.30
2023-01-27T16:06:05.802Z,77.39
2023-01-27T16:10:18.283Z,77.37
2023-01-27T16:14:28.285Z,77.38
2023-01-27T16:18:40.718Z,77.45
2023-01-27T16:22:34.552Z,77.44
2023-01-27T16:26:40.214Z,77.63
2023-01-27T16:31:01.951Z,77.45
2023-01-27T16:35:06.075Z,77.30
2023-01-27T16:39:18.559Z,77.25
2023-01-27T16:43:20.081Z,77.35
2023-01-27T16:47:26.959Z,77.34
2023-01-27T16:51:45.857Z,77.23
2023-01-27T16:55:55.144Z,77.29
2023-01-27T17:00:04.618Z,77.37
2023-01-27T17:04:19.492Z,77.27
2023-01-27T17:08:30.566Z,77.31
2023-01-27T17:12:17.444Z,77.26
2023-01-27T17:16:29.174Z,77.30
2023-01-27T17:20:28.745Z,77.34
2023-01-27T17:23:58.828Z,77.33
2023-01-27T17:28:11.380Z,77.34
2023-01-27T17:32:15.029Z,77.36
2023-01-27T17:36:21.471Z,77.36
2023-01-27T17:40:26.781Z,77.59
2023-01-27T17:44:22.250Z,77.49
2023-01-27T17:48:18.652Z,77.42
2023-01-27T17:52:31.220Z,77.51
2023-01-27T17:56:19.803Z,77.51
2023-01-27T18:00:19.996Z,77.53
2023-01-27T18:04:14.363Z,77.67
2023-01-27T18:08:06.994Z,77.44
2023-01-27T18:16:05.490Z,77.49
2023-01-27T18:20:09.998Z,77.64
2023-01-27T18:24:16.624Z,77.65
2023-01-27T18:28:32.435Z,77.69
2023-01-27T18:32:37.526Z,77.64
2023-01-27T18:37:32.278Z,77.62
2023-01-27T18:43:12.980Z,77.72
2023-01-27T18:46:41.903Z,77.92
2023-01-27T18:50:43.634Z,77.63
2023-01-27T19:01:48.802Z,77.97
2023-01-27T19:20:16.210Z,77.31
2023-01-27T19:39:10.408Z,77.59
2023-01-27T19:42:54.506Z,77.78
2023-01-27T19:47:27.100Z,77.64
2023-01-27T19:51:12.502Z,77.66
2023-01-27T19:55:09.582Z,77.67
2023-01-27T19:59:19.351Z,77.56
2023-01-27T20:03:05.996Z,77.74
2023-01-27T20:06:58.580Z,77.77
2023-01-27T20:10:42.585Z,77.80
2023-01-27T20:14:31.445Z,77.66
2023-01-27T20:18:38.120Z,77.61
2023-01-27T20:22:46.143Z,77.62
2023-01-27T20:26:48.867Z,77.61
2023-01-27T20:30:39.185Z,77.54
2023-01-27T20:38:46.404Z,77.60
2023-01-27T20:42:42.902Z,77.35
2023-01-27T20:46:23.197Z,77.23
2023-01-27T20:50:07.165Z,77.18
2023-01-27T20:53:34.315Z,77.18
2023-01-27T20:57:27.312Z,77.06
2023-01-27T21:01:34.006Z,76.92
2023-01-27T21:05:37.738Z,76.81
2023-01-27T21:09:32.629Z,76.71
2023-01-27T21:13:38.130Z,76.78
2023-01-27T21:17:19.731Z,76.56
2023-01-27T21:21:32.344Z,76.38
2023-01-27T21:25:57.345Z,76.51
2023-01-27T21:29:58.588Z,76.24
2023-01-27T21:33:31.025Z,76.00
2023-01-27T21:36:58.725Z,76.02
2023-01-27T21:40:44.925Z,75.89
2023-01-27T21:45:00.179Z,75.98
2023-01-27T21:48:43.251Z,75.99
2023-01-27T21:52:33.093Z,76.01
2023-01-27T21:56:25.777Z,75.82
2023-01-27T22:00:29.439Z,75.58
2023-01-27T22:04:21.989Z,75.65
2023-01-27T22:08:30.414Z,75.50
2023-01-27T22:12:20.393Z,75.45
2023-01-27T22:16:14.173Z,75.65
2023-01-27T22:20:16.340Z,75.63
2023-01-27T22:24:19.988Z,75.28
2023-01-27T22:28:03.625Z,75.55
2023-01-27T22:31:42.691Z,75.52
2023-01-27T22:35:31.513Z,75.59
2023-01-27T22:39:28.186Z,75.43
2023-01-27T22:43:11.396Z,75.01
2023-01-27T22:51:55.928Z,74.96
2023-01-27T22:56:00.533Z,74.94
2023-01-27T23:00:04.134Z,74.79
2023-01-27T23:04:07.900Z,74.57
2023-01-27T23:07:54.108Z,74.53
2023-01-27T23:11:30.574Z,74.73
2023-01-27T23:15:33.294Z,74.90
2023-01-27T23:19:37.506Z,74.82
2023-01-27T23:23:40.912Z,74.82
2023-01-27T23:27:58.830Z,74.67
2023-01-27T23:32:01.299Z,74.42
2023-01-27T23:35:55.387Z,74.67
2023-01-27T23:39:57.756Z,74.89
2023-01-27T23:43:57.144Z,74.68
2023-01-27T23:48:00.734Z,74.42
2023-01-27T23:52:05.833Z,74.31
2023-01-27T23:55:52.401Z,74.71
2023-01-27T23:59:51.364Z,74.45
